sensor_id;sensor_type;location;lat;lon;timestamp;pressure;altitude;pressure_sealevel;temperature;humidity
14120;BME280;7138;49.246;9.100;2022-11-20T00:02:03;98269.69;;;5.20;100.00
14120;BME280;7138;49.246;9.100;2022-11-20T00:04:29;98283.38;;;5.22;100.00
14120;BME280;7138;49.246;9.100;2022-11-20T00:06:54;98271.41;;;5.22;100.00
14120;BME280;7138;49.246;9.100;2022-11-20T00:09:20;98276.56;;;5.24;100.00
14120;BME280;7138;49.246;9.100;2022-11-20T00:11:46;98276.63;;;5.30;100.00
14120;BME280;7138;49.246;9.100;2022-11-20T00:14:12;98277.50;;;5.30;100.00
14120;BME280;7138;49.246;9.100;2022-11-20T00:16:39;98281.78;;;5.31;100.00
14120;BME280;7138;49.246;9.100;2022-11-20T00:19:05;98281.78;;;5.31;100.00
14120;BME280;7138;49.246;9.100;2022-11-20T00:21:31;98280.06;;;5.30;100.00
14120;BME280;7138;49.246;9.100;2022-11-20T00:23:58;98274.94;;;5.29;100.00
14120;BME280;7138;49.246;9.100;2022-11-20T00:26:26;98275.72;;;5.26;100.00
14120;BME280;7138;49.246;9.100;2022-11-20T00:28:54;98272.25;;;5.20;100.00
14120;BME280;7138;49.246;9.100;2022-11-20T00:31:21;98274.78;;;5.18;100.00
14120;BME280;7138;49.246;9.100;2022-11-20T00:33:49;98276.53;;;5.22;100.00
14120;BME280;7138;49.246;9.100;2022-11-20T00:36:17;98281.66;;;5.22;100.00
14120;BME280;7138;49.246;9.100;2022-11-20T00:38:44;98285.06;;;5.21;100.00
14120;BME280;7138;49.246;9.100;2022-11-20T00:41:13;98281.72;;;5.25;100.00
14120;BME280;7138;49.246;9.100;2022-11-20T00:43:39;98272.34;;;5.26;100.00
14120;BME280;7138;49.246;9.100;2022-11-20T00:46:08;98272.38;;;5.30;100.00
14120;BME280;7138;49.246;9.100;2022-11-20T00:48:35;98273.16;;;5.26;100.00
14120;BME280;7138;49.246;9.100;2022-11-20T00:51:02;98278.28;;;5.26;100.00
14120;BME280;7138;49.246;9.100;2022-11-20T00:53:28;98278.31;;;5.29;100.00
14120;BME280;7138;49.246;9.100;2022-11-20T00:55:55;98281.75;;;5.30;100.00
14120;BME280;7138;49.246;9.100;2022-11-20T00:58:23;98277.56;;;5.35;100.00
14120;BME280;7138;49.246;9.100;2022-11-20T01:00:49;98268.19;;;5.38;100.00
14120;BME280;7138;49.246;9.100;2022-11-20T01:03:15;98274.19;;;5.39;100.00
14120;BME280;7138;49.246;9.100;2022-11-20T01:05:42;98274.19;;;5.37;100.00
14120;BME280;7138;49.246;9.100;2022-11-20T01:08:11;98275.91;;;5.40;100.00
14120;BME280;7138;49.246;9.100;2022-11-20T01:10:37;98283.56;;;5.38;100.00
14120;BME280;7138;49.246;9.100;2022-11-20T01:13:03;98270.78;;;5.40;100.00
14120;BME280;7138;49.246;9.100;2022-11-20T01:15:48;98281.94;;;5.45;100.00
14120;BME280;7138;49.246;9.100;2022-11-20T01:18:13;98275.13;;;5.45;100.00
14120;BME280;7138;49.246;9.100;2022-11-20T01:20:39;98273.44;;;5.46;100.00
14120;BME280;7138;49.246;9.100;2022-11-20T01:23:05;98269.16;;;5.46;100.00
14120;BME280;7138;49.246;9.100;2022-11-20T01:25:34;98264.94;;;5.50;100.00
14120;BME280;7138;49.246;9.100;2022-11-20T01:28:00;98278.63;;;5.53;100.00
14120;BME280;7138;49.246;9.100;2022-11-20T01:30:26;98270.16;;;5.58;100.00
14120;BME280;7138;49.246;9.100;2022-11-20T01:32:51;98265.06;;;5.59;100.00
14120;BME280;7138;49.246;9.100;2022-11-20T01:35:17;98265.06;;;5.61;100.00
14120;BME280;7138;49.246;9.100;2022-11-20T01:37:43;98270.25;;;5.65;100.00
14120;BME280;7138;49.246;9.100;2022-11-20T01:40:11;98254.88;;;5.67;100.00
14120;BME280;7138;49.246;9.100;2022-11-20T01:42:38;98255.72;;;5.67;100.00
14120;BME280;7138;49.246;9.100;2022-11-20T01:45:52;98254.91;;;5.70;100.00
14120;BME280;7138;49.246;9.100;2022-11-20T01:48:25;98260.03;;;5.70;100.00
14120;BME280;7138;49.246;9.100;2022-11-20T01:50:53;98237.69;;;5.58;100.00
14120;BME280;7138;49.246;9.100;2022-11-20T01:53:25;98251.47;;;5.68;100.00
14120;BME280;7138;49.246;9.100;2022-11-20T01:55:55;98260.97;;;5.78;100.00
14120;BME280;7138;49.246;9.100;2022-11-20T01:58:30;98265.22;;;5.76;100.00
14120;BME280;7138;49.246;9.100;2022-11-20T02:00:58;98255.81;;;5.75;100.00
14120;BME280;7138;49.246;9.100;2022-11-20T02:03:24;98258.38;;;5.73;100.00
14120;BME280;7138;49.246;9.100;2022-11-20T02:05:57;98262.63;;;5.73;100.00
14120;BME280;7138;49.246;9.100;2022-11-20T02:08:24;98260.03;;;5.70;100.00
14120;BME280;7138;49.246;9.100;2022-11-20T02:10:50;98259.19;;;5.71;100.00
14120;BME280;7138;49.246;9.100;2022-11-20T02:13:17;98259.19;;;5.72;100.00
14120;BME280;7138;49.246;9.100;2022-11-20T02:16:04;98258.38;;;5.73;100.00
14120;BME280;7138;49.246;9.100;2022-11-20T02:18:34;98255.81;;;5.73;100.00
14120;BME280;7138;49.246;9.100;2022-11-20T02:21:07;98252.38;;;5.71;100.00
14120;BME280;7138;49.246;9.100;2022-11-20T02:23:39;98258.38;;;5.73;100.00
14120;BME280;7138;49.246;9.100;2022-11-20T02:26:13;98254.03;;;5.69;100.00
14120;BME280;7138;49.246;9.100;2022-11-20T02:28:41;98253.25;;;5.73;100.00
14120;BME280;7138;49.246;9.100;2022-11-20T02:31:07;98252.38;;;5.73;100.00
14120;BME280;7138;49.246;9.100;2022-11-20T02:33:33;98252.38;;;5.73;100.00
14120;BME280;7138;49.246;9.100;2022-11-20T02:35:59;98243.81;;;5.71;100.00
14120;BME280;7138;49.246;9.100;2022-11-20T02:38:25;98246.41;;;5.75;100.00
14120;BME280;7138;49.246;9.100;2022-11-20T02:40:51;98236.19;;;5.78;100.00
14120;BME280;7138;49.246;9.100;2022-11-20T02:43:18;98244.81;;;5.85;100.00
14120;BME280;7138;49.246;9.100;2022-11-20T02:45:44;98232.91;;;5.88;100.00
14120;BME280;7138;49.246;9.100;2022-11-20T02:48:10;98230.38;;;5.91;100.00
14120;BME280;7138;49.246;9.100;2022-11-20T02:50:39;98227.00;;;5.97;100.00
14120;BME280;7138;49.246;9.100;2022-11-20T02:53:06;98223.63;;;6.01;100.00
14120;BME280;7138;49.246;9.100;2022-11-20T02:55:32;98227.94;;;6.03;100.00
14120;BME280;7138;49.246;9.100;2022-11-20T02:57:58;98227.94;;;6.05;100.00
14120;BME280;7138;49.246;9.100;2022-11-20T03:00:25;98227.13;;;6.08;100.00
14120;BME280;7138;49.246;9.100;2022-11-20T03:02:51;98222.00;;;6.09;100.00
14120;BME280;7138;49.246;9.100;2022-11-20T03:05:17;98222.84;;;6.10;100.00
14120;BME280;7138;49.246;9.100;2022-11-20T03:07:44;98223.75;;;6.13;100.00
14120;BME280;7138;49.246;9.100;2022-11-20T03:10:11;98221.22;;;6.16;100.00
14120;BME280;7138;49.246;9.100;2022-11-20T03:12:36;98216.97;;;6.20;100.00
14120;BME280;7138;49.246;9.100;2022-11-20T03:15:04;98214.44;;;6.23;100.00
14120;BME280;7138;49.246;9.100;2022-11-20T03:17:31;98212.69;;;6.23;100.00
14120;BME280;7138;49.246;9.100;2022-11-20T03:19:57;98215.28;;;6.26;100.00
14120;BME280;7138;49.246;9.100;2022-11-20T03:22:23;98215.28;;;6.26;100.00
14120;BME280;7138;49.246;9.100;2022-11-20T03:24:49;98204.22;;;6.29;100.00
14120;BME280;7138;49.246;9.100;2022-11-20T03:27:14;98200.81;;;6.31;100.00
14120;BME280;7138;49.246;9.100;2022-11-20T03:29:40;98197.38;;;6.35;100.00
14120;BME280;7138;49.246;9.100;2022-11-20T03:32:07;98194.84;;;6.37;100.00
14120;BME280;7138;49.246;9.100;2022-11-20T03:34:34;98195.72;;;6.39;100.00
14120;BME280;7138;49.246;9.100;2022-11-20T03:37:00;98196.59;;;6.38;100.00
14120;BME280;7138;49.246;9.100;2022-11-20T03:39:26;98200.88;;;6.40;100.00
14120;BME280;7138;49.246;9.100;2022-11-20T03:41:52;98204.31;;;6.42;100.00
14120;BME280;7138;49.246;9.100;2022-11-20T03:44:21;98199.22;;;6.47;100.00
14120;BME280;7138;49.246;9.100;2022-11-20T03:46:47;98198.34;;;6.46;100.00
14120;BME280;7138;49.246;9.100;2022-11-20T03:49:13;98198.38;;;6.51;100.00
14120;BME280;7138;49.246;9.100;2022-11-20T03:51:40;98197.53;;;6.52;100.00
14120;BME280;7138;49.246;9.100;2022-11-20T03:54:08;98198.34;;;6.46;100.00
14120;BME280;7138;49.246;9.100;2022-11-20T03:56:37;98200.06;;;6.46;100.00
14120;BME280;7138;49.246;9.100;2022-11-20T03:59:03;98202.59;;;6.44;100.00
14120;BME280;7138;49.246;9.100;2022-11-20T04:01:32;98206.91;;;6.44;100.00
14120;BME280;7138;49.246;9.100;2022-11-20T04:03:59;98199.19;;;6.45;100.00
14120;BME280;7138;49.246;9.100;2022-11-20T04:06:28;98197.47;;;6.44;100.00
14120;BME280;7138;49.246;9.100;2022-11-20T04:08:57;98193.19;;;6.45;100.00
14120;BME280;7138;49.246;9.100;2022-11-20T04:11:25;98204.28;;;6.38;100.00
14120;BME280;7138;49.246;9.100;2022-11-20T04:13:56;98206.84;;;6.39;100.00
14120;BME280;7138;49.246;9.100;2022-11-20T04:16:24;98202.53;;;6.35;100.00
14120;BME280;7138;49.246;9.100;2022-11-20T04:18:52;98202.50;;;6.32;100.00
14120;BME280;7138;49.246;9.100;2022-11-20T04:21:18;98192.22;;;6.31;100.00
14120;BME280;7138;49.246;9.100;2022-11-20T04:23:44;98193.94;;;6.30;100.00
14120;BME280;7138;49.246;9.100;2022-11-20T04:26:12;98191.38;;;6.30;100.00
14120;BME280;7138;49.246;9.100;2022-11-20T04:28:39;98194.78;;;6.29;100.00
14120;BME280;7138;49.246;9.100;2022-11-20T04:31:07;98188.81;;;6.30;100.00
14120;BME280;7138;49.246;9.100;2022-11-20T04:33:34;98200.78;;;6.30;100.00
14120;BME280;7138;49.246;9.100;2022-11-20T04:36:03;98211.81;;;6.18;100.00
14120;BME280;7138;49.246;9.100;2022-11-20T04:38:35;98197.28;;;6.19;100.00
14120;BME280;7138;49.246;9.100;2022-11-20T04:41:03;98208.41;;;6.21;100.00
14120;BME280;7138;49.246;9.100;2022-11-20T04:43:32;98206.56;;;6.06;100.00
14120;BME280;7138;49.246;9.100;2022-11-20T04:46:00;98208.25;;;6.01;100.00
14120;BME280;7138;49.246;9.100;2022-11-20T04:48:28;98209.84;;;5.93;100.00
14120;BME280;7138;49.246;9.100;2022-11-20T04:50:55;98189.09;;;5.72;100.00
14120;BME280;7138;49.246;9.100;2022-11-20T04:53:22;98204.59;;;5.84;100.00
14120;BME280;7138;49.246;9.100;2022-11-20T04:55:48;98202.84;;;5.78;100.00
14120;BME280;7138;49.246;9.100;2022-11-20T04:58:15;98197.72;;;5.78;100.00
14120;BME280;7138;49.246;9.100;2022-11-20T05:00:42;98190.94;;;5.85;100.00
14120;BME280;7138;49.246;9.100;2022-11-20T05:03:08;98186.72;;;5.90;100.00
14120;BME280;7138;49.246;9.100;2022-11-20T05:05:35;98188.53;;;5.97;100.00
14120;BME280;7138;49.246;9.100;2022-11-20T05:08:02;98184.31;;;6.05;100.00
14120;BME280;7138;49.246;9.100;2022-11-20T05:10:28;98191.25;;;6.14;100.00
14120;BME280;7138;49.246;9.100;2022-11-20T05:12:54;98187.88;;;6.22;100.00
14120;BME280;7138;49.246;9.100;2022-11-20T05:15:20;98192.22;;;6.29;100.00
14120;BME280;7138;49.246;9.100;2022-11-20T05:17:48;98187.13;;;6.35;100.00
14120;BME280;7138;49.246;9.100;2022-11-20T05:20:15;98187.13;;;6.35;100.00
14120;BME280;7138;49.246;9.100;2022-11-20T05:22:41;98188.84;;;6.36;100.00
14120;BME280;7138;49.246;9.100;2022-11-20T05:25:07;98185.41;;;6.34;100.00
14120;BME280;7138;49.246;9.100;2022-11-20T05:27:33;98187.16;;;6.41;100.00
14120;BME280;7138;49.246;9.100;2022-11-20T05:29:59;98175.22;;;6.45;100.00
14120;BME280;7138;49.246;9.100;2022-11-20T05:32:25;98176.09;;;6.47;100.00
14120;BME280;7138;49.246;9.100;2022-11-20T05:34:52;98174.41;;;6.49;100.00
14120;BME280;7138;49.246;9.100;2022-11-20T05:37:18;98182.16;;;6.53;100.00
14120;BME280;7138;49.246;9.100;2022-11-20T05:39:44;98177.88;;;6.60;100.00
14120;BME280;7138;49.246;9.100;2022-11-20T05:42:10;98183.91;;;6.64;100.00
14120;BME280;7138;49.246;9.100;2022-11-20T05:44:54;98184.78;;;6.67;100.00
14120;BME280;7138;49.246;9.100;2022-11-20T05:47:20;98193.34;;;6.69;100.00
14120;BME280;7138;49.246;9.100;2022-11-20T05:49:46;98185.66;;;6.71;100.00
14120;BME280;7138;49.246;9.100;2022-11-20T05:52:13;98190.78;;;6.68;100.00
14120;BME280;7138;49.246;9.100;2022-11-20T05:54:39;98189.97;;;6.72;100.00
14120;BME280;7138;49.246;9.100;2022-11-20T05:57:05;98186.56;;;6.79;100.00
14120;BME280;7138;49.246;9.100;2022-11-20T05:59:31;98190.00;;;6.82;100.00
14120;BME280;7138;49.246;9.100;2022-11-20T06:01:57;98187.50;;;6.87;100.00
14120;BME280;7138;49.246;9.100;2022-11-20T06:04:23;98189.22;;;6.89;100.00
14120;BME280;7138;49.246;9.100;2022-11-20T06:06:48;98185.81;;;6.95;100.00
14120;BME280;7138;49.246;9.100;2022-11-20T06:09:16;98174.69;;;6.96;100.00
14120;BME280;7138;49.246;9.100;2022-11-20T06:11:42;98178.09;;;6.99;100.00
14120;BME280;7138;49.246;9.100;2022-11-20T06:14:07;98176.44;;;7.04;100.00
14120;BME280;7138;49.246;9.100;2022-11-20T06:16:33;98170.47;;;7.10;100.00
14120;BME280;7138;49.246;9.100;2022-11-20T06:18:59;98180.75;;;7.13;100.00
14120;BME280;7138;49.246;9.100;2022-11-20T06:21:25;98176.50;;;7.17;100.00
14120;BME280;7138;49.246;9.100;2022-11-20T06:23:53;98175.63;;;7.24;100.00
14120;BME280;7138;49.246;9.100;2022-11-20T06:26:23;98179.97;;;7.29;100.00
14120;BME280;7138;49.246;9.100;2022-11-20T06:28:51;98167.09;;;7.25;100.00
14120;BME280;7138;49.246;9.100;2022-11-20T06:31:19;98181.69;;;7.36;100.00
14120;BME280;7138;49.246;9.100;2022-11-20T06:33:46;98180.81;;;7.33;100.00
14120;BME280;7138;49.246;9.100;2022-11-20T06:36:15;98181.69;;;7.29;100.00
14120;BME280;7138;49.246;9.100;2022-11-20T06:38:42;98183.38;;;7.27;100.00
14120;BME280;7138;49.246;9.100;2022-11-20T06:41:12;98188.50;;;7.24;100.00
14120;BME280;7138;49.246;9.100;2022-11-20T06:43:39;98191.97;;;7.30;100.00
14120;BME280;7138;49.246;9.100;2022-11-20T06:46:06;98190.28;;;7.37;100.00
14120;BME280;7138;49.246;9.100;2022-11-20T06:48:32;98189.44;;;7.41;100.00
14120;BME280;7138;49.246;9.100;2022-11-20T06:50:58;98198.03;;;7.41;100.00
14120;BME280;7138;49.246;9.100;2022-11-20T06:53:24;98192.88;;;7.44;100.00
14120;BME280;7138;49.246;9.100;2022-11-20T06:55:51;98192.00;;;7.45;100.00
14120;BME280;7138;49.246;9.100;2022-11-20T06:58:18;98189.47;;;7.51;100.00
14120;BME280;7138;49.246;9.100;2022-11-20T07:00:46;98197.16;;;7.44;100.00
14120;BME280;7138;49.246;9.100;2022-11-20T07:03:12;98186.00;;;7.45;100.00
14120;BME280;7138;49.246;9.100;2022-11-20T07:05:38;98203.19;;;7.53;100.00
14120;BME280;7138;49.246;9.100;2022-11-20T07:08:05;98186.06;;;7.55;100.00
14120;BME280;7138;49.246;9.100;2022-11-20T07:10:32;98190.31;;;7.47;100.00
14120;BME280;7138;49.246;9.100;2022-11-20T07:12:58;98192.00;;;7.42;100.00
14120;BME280;7138;49.246;9.100;2022-11-20T07:15:25;98193.72;;;7.43;100.00
14120;BME280;7138;49.246;9.100;2022-11-20T07:17:52;98193.72;;;7.40;100.00
14120;BME280;7138;49.246;9.100;2022-11-20T07:20:18;98193.72;;;7.42;100.00
14120;BME280;7138;49.246;9.100;2022-11-20T07:22:44;98199.69;;;7.39;100.00
14120;BME280;7138;49.246;9.100;2022-11-20T07:25:10;98199.72;;;7.45;100.00
14120;BME280;7138;49.246;9.100;2022-11-20T07:27:36;98200.63;;;7.50;100.00
14120;BME280;7138;49.246;9.100;2022-11-20T07:30:04;98198.03;;;7.44;100.00
14120;BME280;7138;49.246;9.100;2022-11-20T07:32:30;98195.47;;;7.52;100.00
14120;BME280;7138;49.246;9.100;2022-11-20T07:34:57;98190.31;;;7.47;100.00
14120;BME280;7138;49.246;9.100;2022-11-20T07:37:23;98189.44;;;7.48;100.00
14120;BME280;7138;49.246;9.100;2022-11-20T07:39:48;98189.47;;;7.57;100.00
14120;BME280;7138;49.246;9.100;2022-11-20T07:42:14;98195.47;;;7.58;100.00
14120;BME280;7138;49.246;9.100;2022-11-20T07:44:40;98192.06;;;7.60;100.00
14120;BME280;7138;49.246;9.100;2022-11-20T07:47:06;98203.22;;;7.59;100.00
14120;BME280;7138;49.246;9.100;2022-11-20T07:49:32;98196.34;;;7.52;100.00
14120;BME280;7138;49.246;9.100;2022-11-20T07:52:00;98193.78;;;7.63;100.00
14120;BME280;7138;49.246;9.100;2022-11-20T07:54:26;98197.22;;;7.72;100.00
14120;BME280;7138;49.246;9.100;2022-11-20T07:56:51;98195.53;;;7.76;100.00
14120;BME280;7138;49.246;9.100;2022-11-20T07:59:17;98192.09;;;7.76;100.00
14120;BME280;7138;49.246;9.100;2022-11-20T08:01:43;98198.09;;;7.70;100.00
14120;BME280;7138;49.246;9.100;2022-11-20T08:04:09;98198.09;;;7.72;100.00
14120;BME280;7138;49.246;9.100;2022-11-20T08:06:36;98192.94;;;7.70;100.00
14120;BME280;7138;49.246;9.100;2022-11-20T08:09:03;98205.84;;;7.78;100.00
14120;BME280;7138;49.246;9.100;2022-11-20T08:11:29;98201.53;;;7.70;100.00
14120;BME280;7138;49.246;9.100;2022-11-20T08:14:13;98203.25;;;7.68;100.00
14120;BME280;7138;49.246;9.100;2022-11-20T08:16:41;98205.81;;;7.62;100.00
14120;BME280;7138;49.246;9.100;2022-11-20T08:19:07;98200.69;;;7.75;100.00
14120;BME280;7138;49.246;9.100;2022-11-20T08:21:34;98190.38;;;7.67;100.00
14120;BME280;7138;49.246;9.100;2022-11-20T08:24:00;98199.84;;;7.80;100.00
14120;BME280;7138;49.246;9.100;2022-11-20T08:26:27;98196.38;;;7.77;100.00
14120;BME280;7138;49.246;9.100;2022-11-20T08:28:53;98204.13;;;7.75;100.00
14120;BME280;7138;49.246;9.100;2022-11-20T08:31:20;98211.81;;;7.67;100.00
14120;BME280;7138;49.246;9.100;2022-11-20T08:33:46;98215.22;;;7.66;100.00
14120;BME280;7138;49.246;9.100;2022-11-20T08:36:12;98209.22;;;7.69;100.00
14120;BME280;7138;49.246;9.100;2022-11-20T08:38:38;98213.56;;;7.75;100.00
14120;BME280;7138;49.246;9.100;2022-11-20T08:41:05;98201.50;;;7.66;100.00
14120;BME280;7138;49.246;9.100;2022-11-20T08:43:53;98216.97;;;7.67;100.00
14120;BME280;7138;49.246;9.100;2022-11-20T08:46:19;98194.63;;;7.66;100.00
14120;BME280;7138;49.246;9.100;2022-11-20T08:48:45;98211.84;;;7.86;100.00
14120;BME280;7138;49.246;9.100;2022-11-20T08:51:12;98212.69;;;7.88;100.00
14120;BME280;7138;49.246;9.100;2022-11-20T08:53:38;98222.16;;;7.89;100.00
14120;BME280;7138;49.246;9.100;2022-11-20T08:56:06;98202.41;;;7.85;100.00
14120;BME280;7138;49.246;9.100;2022-11-20T08:58:32;98220.44;;;7.97;100.00
14120;BME280;7138;49.246;9.100;2022-11-20T09:00:59;98215.28;;;7.97;100.00
14120;BME280;7138;49.246;9.100;2022-11-20T09:03:25;98219.59;;;8.01;100.00
14120;BME280;7138;49.246;9.100;2022-11-20T09:05:57;98224.75;;;8.07;100.00
14120;BME280;7138;49.246;9.100;2022-11-20T09:08:24;98233.34;;;8.18;100.00
14120;BME280;7138;49.246;9.100;2022-11-20T09:10:51;98229.91;;;8.07;100.00
14120;BME280;7138;49.246;9.100;2022-11-20T09:13:17;98231.63;;;8.11;100.00
14120;BME280;7138;49.246;9.100;2022-11-20T09:15:43;98229.91;;;8.16;100.00
14120;BME280;7138;49.246;9.100;2022-11-20T09:18:13;98228.19;;;8.12;100.00
14120;BME280;7138;49.246;9.100;2022-11-20T09:20:39;98230.75;;;8.12;100.00
14120;BME280;7138;49.246;9.100;2022-11-20T09:23:05;98236.75;;;8.00;100.00
14120;BME280;7138;49.246;9.100;2022-11-20T09:25:31;98241.06;;;8.06;100.00
14120;BME280;7138;49.246;9.100;2022-11-20T09:27:58;98231.66;;;8.14;100.00
14120;BME280;7138;49.246;9.100;2022-11-20T09:30:24;98235.94;;;8.22;100.00
14120;BME280;7138;49.246;9.100;2022-11-20T09:32:51;98242.78;;;8.19;100.00
14120;BME280;7138;49.246;9.100;2022-11-20T09:35:18;98244.50;;;8.12;100.00
14120;BME280;7138;49.246;9.100;2022-11-20T09:37:44;98246.22;;;8.12;100.00
14120;BME280;7138;49.246;9.100;2022-11-20T09:40:19;98241.94;;;8.14;100.00
14120;BME280;7138;49.246;9.100;2022-11-20T09:42:54;98241.09;;;8.16;100.00
14120;BME280;7138;49.246;9.100;2022-11-20T09:45:37;98243.72;;;8.29;100.00
14120;BME280;7138;49.246;9.100;2022-11-20T09:48:25;98251.38;;;8.21;100.00
14120;BME280;7138;49.246;9.100;2022-11-20T09:51:07;98251.38;;;8.18;100.00
14120;BME280;7138;49.246;9.100;2022-11-20T09:53:47;98251.38;;;8.16;100.00
14120;BME280;7138;49.246;9.100;2022-11-20T09:56:20;98254.84;;;8.23;100.00
14120;BME280;7138;49.246;9.100;2022-11-20T09:58:51;98242.81;;;8.25;100.00
14120;BME280;7138;49.246;9.100;2022-11-20T10:01:20;98253.97;;;8.25;100.00
14120;BME280;7138;49.246;9.100;2022-11-20T10:03:54;98253.09;;;8.25;100.00
14120;BME280;7138;49.246;9.100;2022-11-20T10:06:30;98249.69;;;8.20;100.00
14120;BME280;7138;49.246;9.100;2022-11-20T10:09:19;98237.69;;;8.31;100.00
14120;BME280;7138;49.246;9.100;2022-11-20T10:11:53;98241.13;;;8.36;100.00
14120;BME280;7138;49.246;9.100;2022-11-20T10:14:34;98251.44;;;8.35;100.00
14120;BME280;7138;49.246;9.100;2022-11-20T10:17:16;98242.88;;;8.45;100.00
14120;BME280;7138;49.246;9.100;2022-11-20T10:20:09;98243.69;;;8.54;100.00
14120;BME280;7138;49.246;9.100;2022-11-20T10:22:58;98241.13;;;8.60;100.00
14120;BME280;7138;49.246;9.100;2022-11-20T10:25:37;98241.97;;;8.58;100.00
14120;BME280;7138;49.246;9.100;2022-11-20T10:28:34;98248.00;;;8.58;100.00
14120;BME280;7138;49.246;9.100;2022-11-20T10:31:10;98244.56;;;8.53;100.00
14120;BME280;7138;49.246;9.100;2022-11-20T10:33:41;98235.13;;;8.40;100.00
14120;BME280;7138;49.246;9.100;2022-11-20T10:36:15;98253.16;;;8.49;100.00
14120;BME280;7138;49.246;9.100;2022-11-20T10:38:47;98240.28;;;8.49;100.00
14120;BME280;7138;49.246;9.100;2022-11-20T10:41:23;98241.13;;;8.45;100.00
14120;BME280;7138;49.246;9.100;2022-11-20T10:44:02;98238.56;;;8.53;100.00
14120;BME280;7138;49.246;9.100;2022-11-20T10:46:37;98235.97;;;8.45;100.00
14120;BME280;7138;49.246;9.100;2022-11-20T10:49:13;98241.13;;;8.39;100.00
14120;BME280;7138;49.246;9.100;2022-11-20T10:51:59;98241.13;;;8.51;100.00
14120;BME280;7138;49.246;9.100;2022-11-20T10:54:39;98230.81;;;8.51;100.00
14120;BME280;7138;49.246;9.100;2022-11-20T10:57:20;98235.97;;;8.51;100.00
14120;BME280;7138;49.246;9.100;2022-11-20T11:00:04;98220.50;;;8.60;100.00
14120;BME280;7138;49.246;9.100;2022-11-20T11:02:44;98227.38;;;8.64;100.00
14120;BME280;7138;49.246;9.100;2022-11-20T11:05:27;98226.53;;;8.67;100.00
14120;BME280;7138;49.246;9.100;2022-11-20T11:07:58;98200.75;;;8.67;100.00
14120;BME280;7138;49.246;9.100;2022-11-20T11:10:32;98222.22;;;8.83;100.00
14120;BME280;7138;49.246;9.100;2022-11-20T11:13:02;98221.34;;;8.73;100.00
14120;BME280;7138;49.246;9.100;2022-11-20T11:15:35;98209.34;;;8.67;100.00
14120;BME280;7138;49.246;9.100;2022-11-20T11:18:02;98210.19;;;8.78;100.00
14120;BME280;7138;49.246;9.100;2022-11-20T11:20:28;98209.34;;;8.73;100.00
14120;BME280;7138;49.246;9.100;2022-11-20T11:22:56;98209.34;;;8.66;100.00
14120;BME280;7138;49.246;9.100;2022-11-20T11:25:30;98210.19;;;8.71;100.00
14120;BME280;7138;49.246;9.100;2022-11-20T11:27:59;98202.47;;;8.65;100.00
14120;BME280;7138;49.246;9.100;2022-11-20T11:30:29;98199.91;;;8.53;100.00
14120;BME280;7138;49.246;9.100;2022-11-20T11:33:08;98197.31;;;8.48;100.00
14120;BME280;7138;49.246;9.100;2022-11-20T11:35:45;98193.03;;;8.58;100.00
14120;BME280;7138;49.246;9.100;2022-11-20T11:38:16;98192.19;;;8.59;100.00
14120;BME280;7138;49.246;9.100;2022-11-20T11:40:47;98186.97;;;8.75;100.00
14120;BME280;7138;49.246;9.100;2022-11-20T11:43:22;98182.69;;;8.81;100.00
14120;BME280;7138;49.246;9.100;2022-11-20T11:46:26;98169.75;;;8.97;100.00
14120;BME280;7138;49.246;9.100;2022-11-20T11:49:09;98162.84;;;9.07;100.00
14120;BME280;7138;49.246;9.100;2022-11-20T11:51:47;98161.88;;;9.35;100.00
14120;BME280;7138;49.246;9.100;2022-11-20T11:54:23;98163.56;;;9.42;100.00
14120;BME280;7138;49.246;9.100;2022-11-20T11:56:52;98154.06;;;9.47;100.00
14120;BME280;7138;49.246;9.100;2022-11-20T11:59:28;98158.28;;;9.65;100.00
14120;BME280;7138;49.246;9.100;2022-11-20T12:02:04;98162.53;;;9.72;100.00
14120;BME280;7138;49.246;9.100;2022-11-20T12:04:44;98169.38;;;9.76;100.00
14120;BME280;7138;49.246;9.100;2022-11-20T12:07:27;98161.66;;;9.73;100.00
14120;BME280;7138;49.246;9.100;2022-11-20T12:09:57;98161.53;;;9.93;100.00
14120;BME280;7138;49.246;9.100;2022-11-20T12:12:31;98154.66;;;9.93;100.00
14120;BME280;7138;49.246;9.100;2022-11-20T12:14:58;98161.50;;;9.99;100.00
14120;BME280;7138;49.246;9.100;2022-11-20T12:17:24;98164.09;;;9.94;100.00
14120;BME280;7138;49.246;9.100;2022-11-20T12:19:51;98164.19;;;9.79;100.00
14120;BME280;7138;49.246;9.100;2022-11-20T12:22:36;98157.31;;;9.84;100.00
14120;BME280;7138;49.246;9.100;2022-11-20T12:25:11;98150.41;;;9.83;100.00
14120;BME280;7138;49.246;9.100;2022-11-20T12:30:59;98152.03;;;9.98;100.00
14120;BME280;7138;49.246;9.100;2022-11-20T12:33:57;98157.13;;;10.07;100.00
14120;BME280;7138;49.246;9.100;2022-11-20T12:36:38;98149.38;;;10.07;100.00
14120;BME280;7138;49.246;9.100;2022-11-20T12:39:21;98158.03;;;10.03;99.77
14120;BME280;7138;49.246;9.100;2022-11-20T12:42:08;98153.69;;;10.06;97.81
14120;BME280;7138;49.246;9.100;2022-11-20T12:45:36;98157.19;;;9.98;96.95
14120;BME280;7138;49.246;9.100;2022-11-20T12:48:36;98157.19;;;9.98;99.23
14120;BME280;7138;49.246;9.100;2022-11-20T12:51:34;98158.03;;;10.01;98.59
14120;BME280;7138;49.246;9.100;2022-11-20T12:57:29;98156.13;;;10.29;98.55
14120;BME280;7138;49.246;9.100;2022-11-20T13:00:11;98155.13;;;10.45;97.67
14120;BME280;7138;49.246;9.100;2022-11-20T13:03:02;98158.56;;;10.47;94.69
14120;BME280;7138;49.246;9.100;2022-11-20T13:05:43;98152.53;;;10.47;97.10
14120;BME280;7138;49.246;9.100;2022-11-20T13:08:20;98151.72;;;10.40;97.14
14120;BME280;7138;49.246;9.100;2022-11-20T13:10:51;98148.41;;;10.24;95.54
14120;BME280;7138;49.246;9.100;2022-11-20T13:13:31;98150.16;;;10.24;97.23
14120;BME280;7138;49.246;9.100;2022-11-20T13:16:04;98149.28;;;10.23;96.54
14120;BME280;7138;49.246;9.100;2022-11-20T13:18:38;98140.78;;;10.08;96.04
14120;BME280;7138;49.246;9.100;2022-11-20T13:21:15;98137.22;;;10.22;98.90
14120;BME280;7138;49.246;9.100;2022-11-20T13:23:41;98146.72;;;10.20;96.35
14120;BME280;7138;49.246;9.100;2022-11-20T13:26:17;98135.56;;;10.09;95.30
14120;BME280;7138;49.246;9.100;2022-11-20T13:28:47;98136.41;;;10.19;97.34
14120;BME280;7138;49.246;9.100;2022-11-20T13:31:31;98120.94;;;10.14;94.47
14120;BME280;7138;49.246;9.100;2022-11-20T13:34:02;98127.69;;;10.33;96.63